sensor_id;sensor_type;location;lat;lon;timestamp;P1;durP1;ratioP1;P2;durP2;ratioP2
49722;SDS011;43484;43.608;1.458;2023-09-30T00:02:26;11.82;;;5.88;;
49722;SDS011;43484;43.608;1.458;2023-09-30T00:04:54;15.57;;;6.65;;
49722;SDS011;43484;43.608;1.458;2023-09-30T00:07:20;13.80;;;6.20;;
49722;SDS011;43484;43.608;1.458;2023-09-30T00:09:47;19.67;;;5.22;;
49722;SDS011;43484;43.608;1.458;2023-09-30T00:12:14;17.85;;;5.93;;
49722;SDS011;43484;43.608;1.458;2023-09-30T00:14:41;11.07;;;5.18;;
49722;SDS011;43484;43.608;1.458;2023-09-30T00:17:08;16.08;;;7.60;;
49722;SDS011;43484;43.608;1.458;2023-09-30T00:19:35;12.45;;;4.65;;
49722;SDS011;43484;43.608;1.458;2023-09-30T00:22:01;13.85;;;5.38;;
49722;SDS011;43484;43.608;1.458;2023-09-30T00:24:28;20.25;;;7.75;;
49722;SDS011;43484;43.608;1.458;2023-09-30T00:26:55;15.18;;;5.70;;
49722;SDS011;43484;43.608;1.458;2023-09-30T00:29:22;15.05;;;6.00;;
49722;SDS011;43484;43.608;1.458;2023-09-30T00:31:49;17.70;;;5.63;;
49722;SDS011;43484;43.608;1.458;2023-09-30T00:34:16;15.10;;;5.72;;
49722;SDS011;43484;43.608;1.458;2023-09-30T00:36:43;17.17;;;5.90;;
49722;SDS011;43484;43.608;1.458;2023-09-30T00:39:09;15.88;;;5.47;;
49722;SDS011;43484;43.608;1.458;2023-09-30T00:41:40;15.35;;;5.78;;
49722;SDS011;43484;43.608;1.458;2023-09-30T00:44:07;16.58;;;7.43;;
49722;SDS011;43484;43.608;1.458;2023-09-30T00:46:37;17.15;;;6.13;;
49722;SDS011;43484;43.608;1.458;2023-09-30T00:49:07;14.55;;;5.70;;
49722;SDS011;43484;43.608;1.458;2023-09-30T00:51:36;18.88;;;7.00;;
49722;SDS011;43484;43.608;1.458;2023-09-30T00:54:04;13.00;;;6.25;;
49722;SDS011;43484;43.608;1.458;2023-09-30T00:56:32;17.88;;;6.07;;
49722;SDS011;43484;43.608;1.458;2023-09-30T00:58:59;16.48;;;5.53;;
49722;SDS011;43484;43.608;1.458;2023-09-30T01:01:27;12.43;;;5.20;;
49722;SDS011;43484;43.608;1.458;2023-09-30T01:03:54;15.77;;;5.47;;
49722;SDS011;43484;43.608;1.458;2023-09-30T01:06:21;17.65;;;6.15;;
49722;SDS011;43484;43.608;1.458;2023-09-30T01:08:48;21.90;;;8.48;;
49722;SDS011;43484;43.608;1.458;2023-09-30T01:11:16;15.20;;;6.05;;
49722;SDS011;43484;43.608;1.458;2023-09-30T01:13:44;15.23;;;6.40;;
49722;SDS011;43484;43.608;1.458;2023-09-30T01:16:11;21.27;;;7.22;;
49722;SDS011;43484;43.608;1.458;2023-09-30T01:18:39;16.02;;;6.22;;
49722;SDS011;43484;43.608;1.458;2023-09-30T01:21:09;14.00;;;6.28;;
49722;SDS011;43484;43.608;1.458;2023-09-30T01:23:37;17.23;;;6.05;;
49722;SDS011;43484;43.608;1.458;2023-09-30T01:26:07;14.00;;;6.10;;
49722;SDS011;43484;43.608;1.458;2023-09-30T01:28:36;20.40;;;6.13;;
49722;SDS011;43484;43.608;1.458;2023-09-30T01:31:02;12.05;;;5.22;;
49722;SDS011;43484;43.608;1.458;2023-09-30T01:33:30;13.18;;;5.55;;
49722;SDS011;43484;43.608;1.458;2023-09-30T01:35:58;14.57;;;6.18;;
49722;SDS011;43484;43.608;1.458;2023-09-30T01:38:25;17.20;;;6.70;;
49722;SDS011;43484;43.608;1.458;2023-09-30T01:40:52;13.90;;;6.07;;
49722;SDS011;43484;43.608;1.458;2023-09-30T01:43:22;14.65;;;5.40;;
49722;SDS011;43484;43.608;1.458;2023-09-30T01:45:49;15.57;;;6.05;;
49722;SDS011;43484;43.608;1.458;2023-09-30T01:48:16;15.88;;;6.68;;
49722;SDS011;43484;43.608;1.458;2023-09-30T01:50:42;16.20;;;6.32;;
49722;SDS011;43484;43.608;1.458;2023-09-30T01:53:10;17.42;;;6.43;;
49722;SDS011;43484;43.608;1.458;2023-09-30T01:55:36;19.67;;;6.40;;
49722;SDS011;43484;43.608;1.458;2023-09-30T01:58:03;16.48;;;6.25;;
49722;SDS011;43484;43.608;1.458;2023-09-30T02:00:30;17.92;;;5.60;;
49722;SDS011;43484;43.608;1.458;2023-09-30T02:02:57;11.80;;;5.03;;
49722;SDS011;43484;43.608;1.458;2023-09-30T02:05:24;18.83;;;7.82;;
49722;SDS011;43484;43.608;1.458;2023-09-30T02:07:51;20.35;;;6.28;;
49722;SDS011;43484;43.608;1.458;2023-09-30T02:10:18;16.65;;;7.00;;
49722;SDS011;43484;43.608;1.458;2023-09-30T02:12:45;13.38;;;5.13;;
49722;SDS011;43484;43.608;1.458;2023-09-30T02:15:13;17.58;;;6.05;;
49722;SDS011;43484;43.608;1.458;2023-09-30T02:17:40;15.60;;;5.72;;
49722;SDS011;43484;43.608;1.458;2023-09-30T02:20:12;16.05;;;5.97;;
49722;SDS011;43484;43.608;1.458;2023-09-30T02:22:43;16.65;;;6.32;;
49722;SDS011;43484;43.608;1.458;2023-09-30T02:25:14;13.65;;;5.43;;
49722;SDS011;43484;43.608;1.458;2023-09-30T02:27:41;14.55;;;5.25;;
49722;SDS011;43484;43.608;1.458;2023-09-30T02:30:09;15.25;;;5.93;;
49722;SDS011;43484;43.608;1.458;2023-09-30T02:32:40;15.40;;;6.43;;
49722;SDS011;43484;43.608;1.458;2023-09-30T02:35:07;20.90;;;5.93;;
49722;SDS011;43484;43.608;1.458;2023-09-30T02:37:37;17.00;;;6.38;;
49722;SDS011;43484;43.608;1.458;2023-09-30T02:40:05;14.70;;;6.53;;
49722;SDS011;43484;43.608;1.458;2023-09-30T02:42:38;16.98;;;6.20;;
49722;SDS011;43484;43.608;1.458;2023-09-30T02:45:07;15.45;;;6.07;;
49722;SDS011;43484;43.608;1.458;2023-09-30T02:47:35;20.45;;;6.50;;
49722;SDS011;43484;43.608;1.458;2023-09-30T02:50:04;23.45;;;12.88;;
49722;SDS011;43484;43.608;1.458;2023-09-30T02:52:32;51.45;;;31.20;;
49722;SDS011;43484;43.608;1.458;2023-09-30T02:54:59;23.42;;;9.90;;
49722;SDS011;43484;43.608;1.458;2023-09-30T02:57:26;18.23;;;7.50;;
49722;SDS011;43484;43.608;1.458;2023-09-30T02:59:56;15.73;;;6.32;;
49722;SDS011;43484;43.608;1.458;2023-09-30T03:02:23;15.68;;;7.30;;
49722;SDS011;43484;43.608;1.458;2023-09-30T03:04:50;14.07;;;6.90;;
49722;SDS011;43484;43.608;1.458;2023-09-30T03:07:20;16.95;;;8.02;;
49722;SDS011;43484;43.608;1.458;2023-09-30T03:09:47;45.80;;;26.77;;
49722;SDS011;43484;43.608;1.458;2023-09-30T03:12:14;15.55;;;7.20;;
49722;SDS011;43484;43.608;1.458;2023-09-30T03:14:40;22.55;;;10.65;;
49722;SDS011;43484;43.608;1.458;2023-09-30T03:17:09;15.05;;;6.85;;
49722;SDS011;43484;43.608;1.458;2023-09-30T03:19:38;18.35;;;9.35;;
49722;SDS011;43484;43.608;1.458;2023-09-30T03:22:05;17.52;;;8.88;;
49722;SDS011;43484;43.608;1.458;2023-09-30T03:24:40;19.15;;;7.60;;
49722;SDS011;43484;43.608;1.458;2023-09-30T03:27:07;15.27;;;5.47;;
49722;SDS011;43484;43.608;1.458;2023-09-30T03:29:38;24.27;;;11.80;;
49722;SDS011;43484;43.608;1.458;2023-09-30T03:32:05;11.75;;;5.75;;
49722;SDS011;43484;43.608;1.458;2023-09-30T03:34:32;13.40;;;6.82;;
49722;SDS011;43484;43.608;1.458;2023-09-30T03:37:03;22.30;;;10.77;;
49722;SDS011;43484;43.608;1.458;2023-09-30T03:39:33;16.88;;;6.15;;
49722;SDS011;43484;43.608;1.458;2023-09-30T03:41:59;19.50;;;8.57;;
49722;SDS011;43484;43.608;1.458;2023-09-30T03:44:26;20.23;;;7.90;;
49722;SDS011;43484;43.608;1.458;2023-09-30T03:46:54;18.23;;;8.88;;
49722;SDS011;43484;43.608;1.458;2023-09-30T03:49:21;17.63;;;6.00;;
49722;SDS011;43484;43.608;1.458;2023-09-30T03:51:48;15.77;;;6.00;;
49722;SDS011;43484;43.608;1.458;2023-09-30T03:54:17;22.00;;;8.25;;
49722;SDS011;43484;43.608;1.458;2023-09-30T03:56:47;26.20;;;11.00;;
49722;SDS011;43484;43.608;1.458;2023-09-30T03:59:13;16.45;;;6.05;;
49722;SDS011;43484;43.608;1.458;2023-09-30T04:01:40;22.80;;;6.47;;
49722;SDS011;43484;43.608;1.458;2023-09-30T04:04:07;19.38;;;8.02;;
49722;SDS011;43484;43.608;1.458;2023-09-30T04:06:36;22.20;;;6.80;;
49722;SDS011;43484;43.608;1.458;2023-09-30T04:09:06;20.17;;;5.78;;
49722;SDS011;43484;43.608;1.458;2023-09-30T04:11:38;21.05;;;6.30;;
49722;SDS011;43484;43.608;1.458;2023-09-30T04:14:06;22.80;;;6.50;;
49722;SDS011;43484;43.608;1.458;2023-09-30T04:16:34;24.13;;;8.73;;
49722;SDS011;43484;43.608;1.458;2023-09-30T04:19:04;17.60;;;6.57;;
49722;SDS011;43484;43.608;1.458;2023-09-30T04:21:31;15.90;;;6.15;;
49722;SDS011;43484;43.608;1.458;2023-09-30T04:24:00;18.08;;;8.68;;
49722;SDS011;43484;43.608;1.458;2023-09-30T04:26:27;16.75;;;7.47;;
49722;SDS011;43484;43.608;1.458;2023-09-30T04:28:55;15.40;;;6.45;;
49722;SDS011;43484;43.608;1.458;2023-09-30T04:31:21;21.50;;;8.30;;
49722;SDS011;43484;43.608;1.458;2023-09-30T04:33:49;17.77;;;5.80;;
49722;SDS011;43484;43.608;1.458;2023-09-30T04:36:19;16.67;;;5.93;;
49722;SDS011;43484;43.608;1.458;2023-09-30T04:38:47;17.90;;;5.53;;
49722;SDS011;43484;43.608;1.458;2023-09-30T04:41:14;15.38;;;5.32;;
49722;SDS011;43484;43.608;1.458;2023-09-30T04:43:42;12.75;;;5.43;;
49722;SDS011;43484;43.608;1.458;2023-09-30T04:46:10;13.13;;;4.60;;
49722;SDS011;43484;43.608;1.458;2023-09-30T04:48:39;10.60;;;4.15;;
49722;SDS011;43484;43.608;1.458;2023-09-30T04:51:07;11.57;;;5.32;;
49722;SDS011;43484;43.608;1.458;2023-09-30T04:53:35;13.65;;;5.50;;
49722;SDS011;43484;43.608;1.458;2023-09-30T04:56:02;11.20;;;4.13;;
49722;SDS011;43484;43.608;1.458;2023-09-30T04:58:29;14.75;;;5.55;;
49722;SDS011;43484;43.608;1.458;2023-09-30T05:00:56;10.23;;;4.75;;
49722;SDS011;43484;43.608;1.458;2023-09-30T05:03:23;8.82;;;4.18;;
49722;SDS011;43484;43.608;1.458;2023-09-30T05:05:53;15.32;;;5.38;;
49722;SDS011;43484;43.608;1.458;2023-09-30T05:08:22;13.80;;;6.05;;
49722;SDS011;43484;43.608;1.458;2023-09-30T05:10:50;12.95;;;5.25;;
49722;SDS011;43484;43.608;1.458;2023-09-30T05:13:18;11.25;;;4.85;;
49722;SDS011;43484;43.608;1.458;2023-09-30T05:15:44;14.20;;;5.10;;
49722;SDS011;43484;43.608;1.458;2023-09-30T05:18:12;17.67;;;5.10;;
49722;SDS011;43484;43.608;1.458;2023-09-30T05:20:40;14.85;;;5.82;;
49722;SDS011;43484;43.608;1.458;2023-09-30T05:23:07;13.85;;;4.70;;
49722;SDS011;43484;43.608;1.458;2023-09-30T05:25:33;10.95;;;4.45;;
49722;SDS011;43484;43.608;1.458;2023-09-30T05:28:00;11.68;;;4.50;;
49722;SDS011;43484;43.608;1.458;2023-09-30T05:30:27;10.60;;;4.72;;
49722;SDS011;43484;43.608;1.458;2023-09-30T05:32:54;11.98;;;4.07;;
49722;SDS011;43484;43.608;1.458;2023-09-30T05:35:20;8.82;;;4.10;;
49722;SDS011;43484;43.608;1.458;2023-09-30T05:37:49;10.82;;;4.18;;
49722;SDS011;43484;43.608;1.458;2023-09-30T05:40:20;10.90;;;4.15;;
49722;SDS011;43484;43.608;1.458;2023-09-30T05:42:55;13.95;;;4.47;;
49722;SDS011;43484;43.608;1.458;2023-09-30T05:45:25;12.95;;;4.72;;
49722;SDS011;43484;43.608;1.458;2023-09-30T05:47:53;12.07;;;4.82;;
49722;SDS011;43484;43.608;1.458;2023-09-30T05:50:23;9.45;;;4.25;;
49722;SDS011;43484;43.608;1.458;2023-09-30T05:52:55;10.48;;;4.85;;
49722;SDS011;43484;43.608;1.458;2023-09-30T05:55:22;12.52;;;4.95;;
49722;SDS011;43484;43.608;1.458;2023-09-30T05:57:52;17.83;;;6.18;;
49722;SDS011;43484;43.608;1.458;2023-09-30T06:00:19;12.07;;;4.32;;
49722;SDS011;43484;43.608;1.458;2023-09-30T06:02:50;11.25;;;4.93;;
49722;SDS011;43484;43.608;1.458;2023-09-30T06:05:18;10.02;;;4.53;;
49722;SDS011;43484;43.608;1.458;2023-09-30T06:07:46;10.48;;;4.72;;
49722;SDS011;43484;43.608;1.458;2023-09-30T06:10:13;14.07;;;4.85;;
49722;SDS011;43484;43.608;1.458;2023-09-30T06:12:45;7.70;;;4.30;;
49722;SDS011;43484;43.608;1.458;2023-09-30T06:15:16;13.82;;;4.90;;
49722;SDS011;43484;43.608;1.458;2023-09-30T06:17:49;10.73;;;4.70;;
49722;SDS011;43484;43.608;1.458;2023-09-30T06:20:19;12.27;;;4.35;;
49722;SDS011;43484;43.608;1.458;2023-09-30T06:22:49;12.85;;;4.47;;
49722;SDS011;43484;43.608;1.458;2023-09-30T06:25:16;10.25;;;4.13;;
49722;SDS011;43484;43.608;1.458;2023-09-30T06:27:46;12.27;;;3.70;;
49722;SDS011;43484;43.608;1.458;2023-09-30T06:30:14;10.70;;;3.88;;
49722;SDS011;43484;43.608;1.458;2023-09-30T06:32:47;12.82;;;3.92;;
49722;SDS011;43484;43.608;1.458;2023-09-30T06:35:14;10.55;;;4.07;;
49722;SDS011;43484;43.608;1.458;2023-09-30T06:37:40;9.48;;;3.38;;
49722;SDS011;43484;43.608;1.458;2023-09-30T06:40:08;8.55;;;2.90;;
49722;SDS011;43484;43.608;1.458;2023-09-30T06:42:39;8.00;;;3.35;;
49722;SDS011;43484;43.608;1.458;2023-09-30T06:45:07;7.45;;;3.83;;
49722;SDS011;43484;43.608;1.458;2023-09-30T06:47:37;10.00;;;3.13;;
49722;SDS011;43484;43.608;1.458;2023-09-30T06:50:09;9.23;;;3.83;;
49722;SDS011;43484;43.608;1.458;2023-09-30T06:52:39;7.65;;;3.40;;
49722;SDS011;43484;43.608;1.458;2023-09-30T06:55:08;13.07;;;4.30;;
49722;SDS011;43484;43.608;1.458;2023-09-30T06:57:35;7.07;;;3.08;;
49722;SDS011;43484;43.608;1.458;2023-09-30T07:00:07;11.25;;;3.47;;
49722;SDS011;43484;43.608;1.458;2023-09-30T07:02:35;9.63;;;3.65;;
49722;SDS011;43484;43.608;1.458;2023-09-30T07:05:09;11.63;;;3.97;;
49722;SDS011;43484;43.608;1.458;2023-09-30T07:07:37;10.52;;;3.83;;
49722;SDS011;43484;43.608;1.458;2023-09-30T07:10:05;7.53;;;3.10;;
49722;SDS011;43484;43.608;1.458;2023-09-30T07:12:36;11.00;;;3.65;;
49722;SDS011;43484;43.608;1.458;2023-09-30T07:15:03;7.80;;;3.70;;
49722;SDS011;43484;43.608;1.458;2023-09-30T07:17:31;8.55;;;3.80;;
49722;SDS011;43484;43.608;1.458;2023-09-30T07:19:59;11.70;;;3.95;;
49722;SDS011;43484;43.608;1.458;2023-09-30T07:22:26;10.75;;;3.78;;
49722;SDS011;43484;43.608;1.458;2023-09-30T07:25:13;12.35;;;3.65;;
49722;SDS011;43484;43.608;1.458;2023-09-30T07:27:45;9.95;;;4.40;;
49722;SDS011;43484;43.608;1.458;2023-09-30T07:30:13;8.98;;;3.63;;
49722;SDS011;43484;43.608;1.458;2023-09-30T07:32:42;16.02;;;4.15;;
49722;SDS011;43484;43.608;1.458;2023-09-30T07:35:09;10.27;;;4.18;;
49722;SDS011;43484;43.608;1.458;2023-09-30T07:37:36;15.27;;;3.92;;
49722;SDS011;43484;43.608;1.458;2023-09-30T07:40:03;11.85;;;3.60;;
49722;SDS011;43484;43.608;1.458;2023-09-30T07:42:31;12.07;;;4.25;;
49722;SDS011;43484;43.608;1.458;2023-09-30T07:45:00;10.63;;;4.03;;
49722;SDS011;43484;43.608;1.458;2023-09-30T07:47:26;11.30;;;3.60;;
49722;SDS011;43484;43.608;1.458;2023-09-30T07:49:53;10.32;;;4.32;;
49722;SDS011;43484;43.608;1.458;2023-09-30T07:52:20;11.80;;;4.28;;
49722;SDS011;43484;43.608;1.458;2023-09-30T07:54:46;8.32;;;3.90;;
49722;SDS011;43484;43.608;1.458;2023-09-30T07:57:13;9.27;;;4.38;;
49722;SDS011;43484;43.608;1.458;2023-09-30T07:59:41;10.45;;;4.35;;
49722;SDS011;43484;43.608;1.458;2023-09-30T08:02:07;15.13;;;5.40;;
49722;SDS011;43484;43.608;1.458;2023-09-30T08:04:34;12.82;;;5.18;;
49722;SDS011;43484;43.608;1.458;2023-09-30T08:07:02;14.65;;;4.28;;
49722;SDS011;43484;43.608;1.458;2023-09-30T08:09:29;8.70;;;4.00;;
49722;SDS011;43484;43.608;1.458;2023-09-30T08:11:55;9.57;;;4.40;;
49722;SDS011;43484;43.608;1.458;2023-09-30T08:14:23;13.95;;;5.03;;
49722;SDS011;43484;43.608;1.458;2023-09-30T08:16:49;14.30;;;4.82;;
49722;SDS011;43484;43.608;1.458;2023-09-30T08:19:16;15.02;;;4.53;;
49722;SDS011;43484;43.608;1.458;2023-09-30T08:21:43;13.45;;;5.00;;
49722;SDS011;43484;43.608;1.458;2023-09-30T08:24:10;11.95;;;4.93;;
49722;SDS011;43484;43.608;1.458;2023-09-30T08:26:36;6.55;;;3.75;;
49722;SDS011;43484;43.608;1.458;2023-09-30T08:29:04;12.70;;;4.28;;
49722;SDS011;43484;43.608;1.458;2023-09-30T08:31:30;12.45;;;3.80;;
49722;SDS011;43484;43.608;1.458;2023-09-30T08:33:57;14.95;;;5.07;;
49722;SDS011;43484;43.608;1.458;2023-09-30T08:36:23;19.95;;;4.88;;
49722;SDS011;43484;43.608;1.458;2023-09-30T08:38:51;9.38;;;3.85;;
49722;SDS011;43484;43.608;1.458;2023-09-30T08:41:31;12.85;;;4.10;;
49722;SDS011;43484;43.608;1.458;2023-09-30T08:43:59;13.95;;;3.80;;
49722;SDS011;43484;43.608;1.458;2023-09-30T08:46:31;11.27;;;4.53;;
49722;SDS011;43484;43.608;1.458;2023-09-30T08:49:02;11.95;;;4.22;;
49722;SDS011;43484;43.608;1.458;2023-09-30T08:51:30;11.38;;;4.25;;
49722;SDS011;43484;43.608;1.458;2023-09-30T08:53:58;10.90;;;4.20;;
49722;SDS011;43484;43.608;1.458;2023-09-30T08:56:29;12.75;;;4.60;;
49722;SDS011;43484;43.608;1.458;2023-09-30T08:58:59;14.75;;;5.13;;
49722;SDS011;43484;43.608;1.458;2023-09-30T09:01:27;21.00;;;3.92;;
49722;SDS011;43484;43.608;1.458;2023-09-30T09:03:55;10.57;;;4.57;;
49722;SDS011;43484;43.608;1.458;2023-09-30T09:06:24;13.30;;;4.60;;
49722;SDS011;43484;43.608;1.458;2023-09-30T09:08:53;9.65;;;4.07;;
49722;SDS011;43484;43.608;1.458;2023-09-30T09:11:19;11.98;;;4.47;;
49722;SDS011;43484;43.608;1.458;2023-09-30T09:13:50;12.98;;;4.15;;
49722;SDS011;43484;43.608;1.458;2023-09-30T09:16:22;11.43;;;4.30;;
49722;SDS011;43484;43.608;1.458;2023-09-30T09:18:50;14.18;;;4.38;;
49722;SDS011;43484;43.608;1.458;2023-09-30T09:21:18;12.55;;;4.57;;
49722;SDS011;43484;43.608;1.458;2023-09-30T09:23:48;12.32;;;3.70;;
49722;SDS011;43484;43.608;1.458;2023-09-30T09:26:26;10.45;;;3.85;;
49722;SDS011;43484;43.608;1.458;2023-09-30T09:28:58;13.30;;;4.45;;
49722;SDS011;43484;43.608;1.458;2023-09-30T09:31:27;12.48;;;3.85;;
49722;SDS011;43484;43.608;1.458;2023-09-30T09:33:55;11.48;;;4.57;;
49722;SDS011;43484;43.608;1.458;2023-09-30T09:36:37;17.73;;;4.00;;
49722;SDS011;43484;43.608;1.458;2023-09-30T09:39:13;12.98;;;3.60;;
49722;SDS011;43484;43.608;1.458;2023-09-30T09:41:53;14.57;;;4.55;;
49722;SDS011;43484;43.608;1.458;2023-09-30T09:44:22;12.40;;;4.15;;
49722;SDS011;43484;43.608;1.458;2023-09-30T09:46:51;14.75;;;3.90;;
49722;SDS011;43484;43.608;1.458;2023-09-30T09:49:18;9.75;;;3.63;;
49722;SDS011;43484;43.608;1.458;2023-09-30T09:51:46;10.02;;;3.13;;
49722;SDS011;43484;43.608;1.458;2023-09-30T09:54:15;8.88;;;3.53;;
49722;SDS011;43484;43.608;1.458;2023-09-30T09:56:45;6.10;;;2.75;;
49722;SDS011;43484;43.608;1.458;2023-09-30T09:59:12;9.35;;;2.92;;
49722;SDS011;43484;43.608;1.458;2023-09-30T10:01:40;15.27;;;3.75;;
49722;SDS011;43484;43.608;1.458;2023-09-30T10:04:11;11.95;;;3.22;;
49722;SDS011;43484;43.608;1.458;2023-09-30T10:06:42;7.50;;;3.25;;
49722;SDS011;43484;43.608;1.458;2023-09-30T10:09:15;6.63;;;1.92;;
49722;SDS011;43484;43.608;1.458;2023-09-30T10:11:43;8.13;;;1.95;;
49722;SDS011;43484;43.608;1.458;2023-09-30T10:14:17;3.85;;;1.48;;
49722;SDS011;43484;43.608;1.458;2023-09-30T10:16:56;2.92;;;1.27;;
49722;SDS011;43484;43.608;1.458;2023-09-30T10:19:23;2.90;;;1.40;;
49722;SDS011;43484;43.608;1.458;2023-09-30T10:24:45;5.25;;;1.63;;
49722;SDS011;43484;43.608;1.458;2023-09-30T10:29:57;4.85;;;2.08;;
49722;SDS011;43484;43.608;1.458;2023-09-30T10:35:19;8.77;;;2.05;;
49722;SDS011;43484;43.608;1.458;2023-09-30T10:37:47;5.53;;;2.10;;
49722;SDS011;43484;43.608;1.458;2023-09-30T10:40:27;7.20;;;1.98;;
49722;SDS011;43484;43.608;1.458;2023-09-30T10:42:56;4.38;;;1.92;;
49722;SDS011;43484;43.608;1.458;2023-09-30T10:51:16;12.55;;;2.60;;
49722;SDS011;43484;43.608;1.458;2023-09-30T10:53:51;5.35;;;1.73;;
49722;SDS011;43484;43.608;1.458;2023-09-30T10:56:21;5.07;;;1.58;;
49722;SDS011;43484;43.608;1.458;2023-09-30T10:58:50;4.03;;;1.63;;
49722;SDS011;43484;43.608;1.458;2023-09-30T11:01:19;6.45;;;1.55;;
49722;SDS011;43484;43.608;1.458;2023-09-30T11:03:48;3.10;;;1.60;;
49722;SDS011;43484;43.608;1.458;2023-09-30T11:06:20;4.63;;;1.85;;
49722;SDS011;43484;43.608;1.458;2023-09-30T11:08:55;3.30;;;1.38;;
49722;SDS011;43484;43.608;1.458;2023-09-30T11:11:39;3.38;;;1.65;;
49722;SDS011;43484;43.608;1.458;2023-09-30T11:14:19;2.83;;;1.30;;
49722;SDS011;43484;43.608;1.458;2023-09-30T11:16:57;3.25;;;1.65;;
49722;SDS011;43484;43.608;1.458;2023-09-30T11:19:36;2.72;;;1.27;;
49722;SDS011;43484;43.608;1.458;2023-09-30T11:22:12;2.25;;;1.35;;
49722;SDS011;43484;43.608;1.458;2023-09-30T11:24:40;6.70;;;1.40;;
49722;SDS011;43484;43.608;1.458;2023-09-30T11:27:07;4.00;;;1.70;;
49722;SDS011;43484;43.608;1.458;2023-09-30T11:29:35;4.22;;;1.50;;
49722;SDS011;43484;43.608;1.458;2023-09-30T11:32:02;3.20;;;1.35;;
49722;SDS011;43484;43.608;1.458;2023-09-30T11:34:33;9.07;;;1.48;;
49722;SDS011;43484;43.608;1.458;2023-09-30T11:37:02;4.93;;;1.50;;
49722;SDS011;43484;43.608;1.458;2023-09-30T11:39:30;2.80;;;1.20;;
49722;SDS011;43484;43.608;1.458;2023-09-30T11:41:57;3.65;;;1.70;;
49722;SDS011;43484;43.608;1.458;2023-09-30T11:44:24;2.92;;;1.38;;
49722;SDS011;43484;43.608;1.458;2023-09-30T11:46:53;7.93;;;1.38;;
49722;SDS011;43484;43.608;1.458;2023-09-30T11:51:52;4.03;;;1.77;;
49722;SDS011;43484;43.608;1.458;2023-09-30T11:54:19;5.28;;;2.08;;
49722;SDS011;43484;43.608;1.458;2023-09-30T11:56:48;4.68;;;1.95;;
49722;SDS011;43484;43.608;1.458;2023-09-30T11:59:17;4.05;;;2.13;;
49722;SDS011;43484;43.608;1.458;2023-09-30T12:01:45;4.00;;;2.10;;
49722;SDS011;43484;43.608;1.458;2023-09-30T12:04:32;4.68;;;1.85;;
49722;SDS011;43484;43.608;1.458;2023-09-30T12:06:59;2.95;;;1.50;;
49722;SDS011;43484;43.608;1.458;2023-09-30T12:09:25;5.85;;;1.88;;
49722;SDS011;43484;43.608;1.458;2023-09-30T12:11:53;6.65;;;2.35;;
49722;SDS011;43484;43.608;1.458;2023-09-30T12:14:21;4.38;;;1.67;;
49722;SDS011;43484;43.608;1.458;2023-09-30T12:16:47;3.30;;;1.50;;
49722;SDS011;43484;43.608;1.458;2023-09-30T12:19:14;3.65;;;1.70;;
49722;SDS011;43484;43.608;1.458;2023-09-30T12:21:41;4.88;;;2.08;;
49722;SDS011;43484;43.608;1.458;2023-09-30T12:24:08;3.35;;;1.67;;
49722;SDS011;43484;43.608;1.458;2023-09-30T12:26:35;3.75;;;1.60;;
49722;SDS011;43484;43.608;1.458;2023-09-30T12:29:04;2.40;;;1.30;;
49722;SDS011;43484;43.608;1.458;2023-09-30T12:31:32;3.00;;;1.35;;
49722;SDS011;43484;43.608;1.458;2023-09-30T12:34:15;4.63;;;1.48;;
49722;SDS011;43484;43.608;1.458;2023-09-30T12:36:43;6.68;;;1.55;;
49722;SDS011;43484;43.608;1.458;2023-09-30T12:39:10;3.60;;;1.63;;
49722;SDS011;43484;43.608;1.458;2023-09-30T12:44:07;3.55;;;1.40;;
49722;SDS011;43484;43.608;1.458;2023-09-30T12:46:35;3.75;;;1.40;;
49722;SDS011;43484;43.608;1.458;2023-09-30T12:49:03;4.13;;;1.48;;
49722;SDS011;43484;43.608;1.458;2023-09-30T12:51:30;1.40;;;0.90;;
49722;SDS011;43484;43.608;1.458;2023-09-30T12:53:58;2.80;;;1.48;;
49722;SDS011;43484;43.608;1.458;2023-09-30T12:56:25;3.17;;;1.42;;
49722;SDS011;43484;43.608;1.458;2023-09-30T12:58:51;5.78;;;1.60;;
49722;SDS011;43484;43.608;1.458;2023-09-30T13:01:18;3.13;;;1.30;;
49722;SDS011;43484;43.608;1.458;2023-09-30T13:03:48;4.53;;;1.20;;
49722;SDS011;43484;43.608;1.458;2023-09-30T13:06:15;2.50;;;1.40;;
49722;SDS011;43484;43.608;1.458;2023-09-30T13:08:43;2.50;;;1.20;;
49722;SDS011;43484;43.608;1.458;2023-09-30T13:11:10;2.40;;;1.30;;
49722;SDS011;43484;43.608;1.458;2023-09-30T13:13:37;2.33;;;1.05;;
49722;SDS011;43484;43.608;1.458;2023-09-30T13:16:05;3.05;;;1.38;;
49722;SDS011;43484;43.608;1.458;2023-09-30T13:18:32;2.70;;;1.30;;
49722;SDS011;43484;43.608;1.458;2023-09-30T13:20:59;2.67;;;1.20;;
49722;SDS011;43484;43.608;1.458;2023-09-30T13:23:26;3.15;;;1.15;;
49722;SDS011;43484;43.608;1.458;2023-09-30T13:25:53;3.63;;;1.45;;
49722;SDS011;43484;43.608;1.458;2023-09-30T13:28:20;2.03;;;1.00;;
49722;SDS011;43484;43.608;1.458;2023-09-30T13:30:47;3.90;;;1.45;;
49722;SDS011;43484;43.608;1.458;2023-09-30T13:33:14;5.43;;;1.13;;
49722;SDS011;43484;43.608;1.458;2023-09-30T13:35:41;4.60;;;1.50;;
49722;SDS011;43484;43.608;1.458;2023-09-30T13:38:11;5.47;;;1.30;;
49722;SDS011;43484;43.608;1.458;2023-09-30T13:40:37;7.68;;;1.83;;
49722;SDS011;43484;43.608;1.458;2023-09-30T13:43:06;5.07;;;1.55;;
49722;SDS011;43484;43.608;1.458;2023-09-30T13:45:33;5.32;;;1.20;;
49722;SDS011;43484;43.608;1.458;2023-09-30T13:48:01;3.40;;;1.33;;
49722;SDS011;43484;43.608;1.458;2023-09-30T13:50:28;3.55;;;1.27;;
49722;SDS011;43484;43.608;1.458;2023-09-30T13:52:55;1.40;;;0.93;;
49722;SDS011;43484;43.608;1.458;2023-09-30T13:55:21;3.90;;;1.70;;
49722;SDS011;43484;43.608;1.458;2023-09-30T13:57:48;2.85;;;1.05;;
49722;SDS011;43484;43.608;1.458;2023-09-30T14:00:15;4.72;;;1.35;;
49722;SDS011;43484;43.608;1.458;2023-09-30T14:02:43;3.53;;;1.30;;
49722;SDS011;43484;43.608;1.458;2023-09-30T14:05:10;2.35;;;1.05;;
49722;SDS011;43484;43.608;1.458;2023-09-30T14:07:37;7.25;;;1.55;;
49722;SDS011;43484;43.608;1.458;2023-09-30T14:10:06;3.38;;;1.02;;
49722;SDS011;43484;43.608;1.458;2023-09-30T14:12:37;3.67;;;1.60;;
49722;SDS011;43484;43.608;1.458;2023-09-30T14:15:06;2.60;;;1.33;;
49722;SDS011;43484;43.608;1.458;2023-09-30T14:17:33;5.25;;;1.45;;
49722;SDS011;43484;43.608;1.458;2023-09-30T14:20:02;3.50;;;1.20;;
49722;SDS011;43484;43.608;1.458;2023-09-30T14:22:32;3.08;;;1.00;;
49722;SDS011;43484;43.608;1.458;2023-09-30T14:24:59;5.13;;;1.20;;
49722;SDS011;43484;43.608;1.458;2023-09-30T14:27:26;3.67;;;1.30;;
49722;SDS011;43484;43.608;1.458;2023-09-30T14:29:53;3.35;;;1.00;;
49722;SDS011;43484;43.608;1.458;2023-09-30T14:32:20;4.80;;;1.40;;
49722;SDS011;43484;43.608;1.458;2023-09-30T14:34:47;3.33;;;1.13;;
49722;SDS011;43484;43.608;1.458;2023-09-30T14:37:13;4.38;;;1.40;;
49722;SDS011;43484;43.608;1.458;2023-09-30T14:39:40;4.03;;;1.33;;
49722;SDS011;43484;43.608;1.458;2023-09-30T14:42:07;4.90;;;1.08;;
49722;SDS011;43484;43.608;1.458;2023-09-30T14:44:34;4.82;;;1.42;;
49722;SDS011;43484;43.608;1.458;2023-09-30T14:47:01;5.40;;;1.10;;
49722;SDS011;43484;43.608;1.458;2023-09-30T14:49:28;2.33;;;1.20;;
49722;SDS011;43484;43.608;1.458;2023-09-30T14:51:56;4.53;;;1.50;;
49722;SDS011;43484;43.608;1.458;2023-09-30T14:54:23;4.05;;;2.17;;
49722;SDS011;43484;43.608;1.458;2023-09-30T14:56:50;2.92;;;1.00;;
49722;SDS011;43484;43.608;1.458;2023-09-30T14:59:17;3.17;;;1.20;;
49722;SDS011;43484;43.608;1.458;2023-09-30T15:01:43;3.22;;;1.10;;
49722;SDS011;43484;43.608;1.458;2023-09-30T15:04:11;3.45;;;1.00;;
49722;SDS011;43484;43.608;1.458;2023-09-30T15:06:38;4.50;;;1.00;;